Austin, TX (78703)

8:32 PM CDT on September 03, 2015 (GMT -0500)
Tarrytown | | Change Station
CLOSE
Current Station
Personal Weather Station
Location: Austin, TX
Elevation: 554 ft
Nearby Weather Stations

Elev 554 ft 30.28 °N, 97.78 °W | Updated 37 seconds ago

Partly Cloudy
Partly Cloudy
88.7 °F
Feels Like 93 °F
N
1.1
Wind Variable Wind from NE
Gusts 2.5 mph

Today
High -- | Low -- °F
--% Chance of Precip.
Yesterday
High -- | Low -- °F
Precip. -- in
7:08 AM 7:51 PM
Waning Gibbous, 65% visible
Pressure 29.81 in
Visibility 10.0 miles
Clouds Few 5500 ft
Heat Index 93 °F
Dew Point 69 °F
Humidity 53%
Rainfall 0.00 in
Snow Depth Not available.
UV 0 out of 12
Pollen 7.20 out of 12
Air Quality Not available.
Flu Activity Not available.
METAR KATT 040051Z AUTO 12006KT 10SM FEW055 32/19 A2985 RMK AO2 SLP093 T03170189 $
Pressure 29.81 in
Visibility 10.0 miles
Clouds Few 5500 ft
Heat Index 93 °F
Dew Point 69 °F
Humidity 53%
Rainfall 0.00 in
Snow Depth Not available.
UV 0 out of 12
Pollen 7.20 out of 12
Air Quality Not available.
Flu Activity Not available.
METAR KATT 040051Z AUTO 12006KT 10SM FEW055 32/19 A2985 RMK AO2 SLP093 T03170189 $

10-Day Weather Forecast

×

Almanac

Astronomy

Sep. 03, 2015 Rise Set
Actual Time
Civil Twilight
Nautical Twilight
Astronomical Twilight
Moon
Length of Visible Light
Length of Day
Tomorrow will be .
, % of the Moon is Illuminated

Today's Extremes

State Highs State Lows

Community

WunderPhotos

Upload Photos

1,852,086 photos uploaded!

WunderBlogs® & News

Nearby

Air Quality

  Air Quality AQ Index Pollutant
Not available.

Snow Depth

Station Depth Elevation

Earthquake Activity

City Distance Mag. Time & Date
Minimum magnitude displayed is 2.5.

Coastal Water Temperatures

Place Temperature

Stations

Nearby Weather Stations

Station Location Temp. Windchill Dew Point Humidity Wind Precip. Elev Updated Type